sensor_id;sensor_type;location;lat;lon;timestamp;P1;durP1;ratioP1;P2;durP2;ratioP2
15990;SDS011;8100;50.994;4.538;2022-09-12T00:01:23;3.65;;;2.45;;
15990;SDS011;8100;50.994;4.538;2022-09-12T00:04:11;2.95;;;2.10;;
15990;SDS011;8100;50.994;4.538;2022-09-12T00:06:59;2.60;;;2.25;;
15990;SDS011;8100;50.994;4.538;2022-09-12T00:09:46;2.42;;;2.05;;
15990;SDS011;8100;50.994;4.538;2022-09-12T00:12:33;3.53;;;2.28;;
15990;SDS011;8100;50.994;4.538;2022-09-12T00:15:21;2.35;;;2.15;;
15990;SDS011;8100;50.994;4.538;2022-09-12T00:18:11;2.05;;;1.85;;
15990;SDS011;8100;50.994;4.538;2022-09-12T00:21:03;2.47;;;2.28;;
15990;SDS011;8100;50.994;4.538;2022-09-12T00:23:50;2.35;;;2.15;;
15990;SDS011;8100;50.994;4.538;2022-09-12T00:26:38;2.58;;;2.20;;
15990;SDS011;8100;50.994;4.538;2022-09-12T00:29:25;3.60;;;2.20;;
15990;SDS011;8100;50.994;4.538;2022-09-12T00:32:14;3.53;;;2.30;;
15990;SDS011;8100;50.994;4.538;2022-09-12T00:35:01;2.63;;;2.22;;
15990;SDS011;8100;50.994;4.538;2022-09-12T00:37:48;2.72;;;2.10;;
15990;SDS011;8100;50.994;4.538;2022-09-12T00:40:36;2.55;;;2.05;;
15990;SDS011;8100;50.994;4.538;2022-09-12T00:43:33;3.78;;;2.45;;
15990;SDS011;8100;50.994;4.538;2022-09-12T00:46:27;3.50;;;2.22;;
15990;SDS011;8100;50.994;4.538;2022-09-12T00:49:21;3.38;;;2.35;;
15990;SDS011;8100;50.994;4.538;2022-09-12T00:52:13;2.20;;;1.92;;
15990;SDS011;8100;50.994;4.538;2022-09-12T00:55:04;2.75;;;2.40;;
15990;SDS011;8100;50.994;4.538;2022-09-12T00:57:56;4.72;;;2.72;;
15990;SDS011;8100;50.994;4.538;2022-09-12T01:00:47;2.70;;;2.45;;
15990;SDS011;8100;50.994;4.538;2022-09-12T01:03:34;2.78;;;2.25;;
15990;SDS011;8100;50.994;4.538;2022-09-12T01:06:25;2.47;;;2.28;;
15990;SDS011;8100;50.994;4.538;2022-09-12T01:09:14;3.00;;;2.50;;
15990;SDS011;8100;50.994;4.538;2022-09-12T01:12:04;3.58;;;2.53;;
15990;SDS011;8100;50.994;4.538;2022-09-12T01:14:52;3.53;;;2.35;;
15990;SDS011;8100;50.994;4.538;2022-09-12T01:17:42;4.93;;;2.30;;
15990;SDS011;8100;50.994;4.538;2022-09-12T01:20:45;2.60;;;2.40;;
15990;SDS011;8100;50.994;4.538;2022-09-12T01:24:08;2.78;;;2.33;;
15990;SDS011;8100;50.994;4.538;2022-09-12T01:27:26;2.90;;;2.15;;
15990;SDS011;8100;50.994;4.538;2022-09-12T01:30:24;3.35;;;2.55;;
15990;SDS011;8100;50.994;4.538;2022-09-12T01:36:42;2.33;;;2.13;;
15990;SDS011;8100;50.994;4.538;2022-09-12T01:39:43;2.85;;;2.40;;
15990;SDS011;8100;50.994;4.538;2022-09-12T01:42:42;3.10;;;2.72;;
15990;SDS011;8100;50.994;4.538;2022-09-12T01:45:37;4.22;;;2.83;;
15990;SDS011;8100;50.994;4.538;2022-09-12T01:48:28;3.05;;;2.63;;
15990;SDS011;8100;50.994;4.538;2022-09-12T01:51:20;2.65;;;2.45;;
15990;SDS011;8100;50.994;4.538;2022-09-12T01:54:13;3.30;;;2.58;;
15990;SDS011;8100;50.994;4.538;2022-09-12T01:57:07;3.50;;;2.67;;
15990;SDS011;8100;50.994;4.538;2022-09-12T02:00:00;3.38;;;2.70;;
15990;SDS011;8100;50.994;4.538;2022-09-12T02:02:53;5.05;;;2.80;;
15990;SDS011;8100;50.994;4.538;2022-09-12T02:05:48;3.83;;;2.60;;
15990;SDS011;8100;50.994;4.538;2022-09-12T02:08:38;3.00;;;2.60;;
15990;SDS011;8100;50.994;4.538;2022-09-12T02:11:30;2.83;;;2.45;;
15990;SDS011;8100;50.994;4.538;2022-09-12T02:14:20;3.45;;;2.42;;
15990;SDS011;8100;50.994;4.538;2022-09-12T02:17:11;3.63;;;2.70;;
15990;SDS011;8100;50.994;4.538;2022-09-12T02:20:02;2.95;;;2.40;;
15990;SDS011;8100;50.994;4.538;2022-09-12T02:22:56;3.53;;;2.47;;
15990;SDS011;8100;50.994;4.538;2022-09-12T02:25:45;3.72;;;2.47;;
15990;SDS011;8100;50.994;4.538;2022-09-12T02:28:37;3.22;;;2.58;;
15990;SDS011;8100;50.994;4.538;2022-09-12T02:31:27;3.17;;;2.65;;
15990;SDS011;8100;50.994;4.538;2022-09-12T02:34:28;4.03;;;2.70;;
15990;SDS011;8100;50.994;4.538;2022-09-12T02:37:29;4.53;;;2.25;;
15990;SDS011;8100;50.994;4.538;2022-09-12T02:40:27;3.63;;;2.63;;
15990;SDS011;8100;50.994;4.538;2022-09-12T02:43:15;4.75;;;2.70;;
15990;SDS011;8100;50.994;4.538;2022-09-12T02:46:02;3.33;;;2.67;;
15990;SDS011;8100;50.994;4.538;2022-09-12T02:48:51;3.33;;;3.03;;
15990;SDS011;8100;50.994;4.538;2022-09-12T02:51:39;3.80;;;2.72;;
15990;SDS011;8100;50.994;4.538;2022-09-12T02:54:28;4.15;;;2.97;;
15990;SDS011;8100;50.994;4.538;2022-09-12T02:57:17;5.03;;;3.15;;
15990;SDS011;8100;50.994;4.538;2022-09-12T03:00:07;3.60;;;3.10;;
15990;SDS011;8100;50.994;4.538;2022-09-12T03:03:03;3.50;;;2.80;;
15990;SDS011;8100;50.994;4.538;2022-09-12T03:06:07;3.45;;;2.97;;
15990;SDS011;8100;50.994;4.538;2022-09-12T03:09:06;4.53;;;3.40;;
15990;SDS011;8100;50.994;4.538;2022-09-12T03:12:07;3.75;;;2.85;;
15990;SDS011;8100;50.994;4.538;2022-09-12T03:15:17;4.93;;;3.17;;
15990;SDS011;8100;50.994;4.538;2022-09-12T03:18:19;4.07;;;3.05;;
15990;SDS011;8100;50.994;4.538;2022-09-12T03:21:17;3.60;;;3.10;;
15990;SDS011;8100;50.994;4.538;2022-09-12T03:24:13;3.83;;;2.92;;
15990;SDS011;8100;50.994;4.538;2022-09-12T03:27:06;4.90;;;3.50;;
15990;SDS011;8100;50.994;4.538;2022-09-12T03:29:58;5.68;;;3.75;;
15990;SDS011;8100;50.994;4.538;2022-09-12T03:32:47;5.93;;;3.78;;
15990;SDS011;8100;50.994;4.538;2022-09-12T03:35:36;6.35;;;4.03;;
15990;SDS011;8100;50.994;4.538;2022-09-12T03:38:23;5.75;;;3.60;;
15990;SDS011;8100;50.994;4.538;2022-09-12T03:41:10;3.58;;;3.20;;
15990;SDS011;8100;50.994;4.538;2022-09-12T03:43:59;5.22;;;3.53;;
15990;SDS011;8100;50.994;4.538;2022-09-12T03:46:46;3.70;;;3.15;;
15990;SDS011;8100;50.994;4.538;2022-09-12T03:49:33;3.85;;;3.35;;
15990;SDS011;8100;50.994;4.538;2022-09-12T03:52:20;5.28;;;3.50;;
15990;SDS011;8100;50.994;4.538;2022-09-12T03:55:08;5.25;;;3.30;;
15990;SDS011;8100;50.994;4.538;2022-09-12T03:57:55;4.05;;;2.97;;
15990;SDS011;8100;50.994;4.538;2022-09-12T04:00:44;5.88;;;3.35;;
15990;SDS011;8100;50.994;4.538;2022-09-12T04:03:31;5.78;;;3.80;;
15990;SDS011;8100;50.994;4.538;2022-09-12T04:06:19;4.78;;;3.28;;
15990;SDS011;8100;50.994;4.538;2022-09-12T04:09:07;5.18;;;3.58;;
15990;SDS011;8100;50.994;4.538;2022-09-12T04:11:54;4.05;;;3.25;;
15990;SDS011;8100;50.994;4.538;2022-09-12T04:14:42;3.78;;;3.40;;
15990;SDS011;8100;50.994;4.538;2022-09-12T04:17:30;7.28;;;3.72;;
15990;SDS011;8100;50.994;4.538;2022-09-12T04:20:17;5.35;;;3.35;;
15990;SDS011;8100;50.994;4.538;2022-09-12T04:23:04;4.03;;;3.40;;
15990;SDS011;8100;50.994;4.538;2022-09-12T04:25:52;4.10;;;3.42;;
15990;SDS011;8100;50.994;4.538;2022-09-12T04:28:40;5.57;;;3.28;;
15990;SDS011;8100;50.994;4.538;2022-09-12T04:31:27;4.53;;;3.40;;
15990;SDS011;8100;50.994;4.538;2022-09-12T04:34:16;4.65;;;3.28;;
15990;SDS011;8100;50.994;4.538;2022-09-12T04:37:04;4.35;;;3.42;;
15990;SDS011;8100;50.994;4.538;2022-09-12T04:39:51;4.28;;;2.90;;
15990;SDS011;8100;50.994;4.538;2022-09-12T04:42:42;4.40;;;2.95;;
15990;SDS011;8100;50.994;4.538;2022-09-12T04:45:29;4.80;;;3.10;;
15990;SDS011;8100;50.994;4.538;2022-09-12T04:48:16;3.90;;;3.20;;
15990;SDS011;8100;50.994;4.538;2022-09-12T04:51:08;4.10;;;3.13;;
15990;SDS011;8100;50.994;4.538;2022-09-12T04:53:58;5.38;;;3.33;;
15990;SDS011;8100;50.994;4.538;2022-09-12T04:56:47;5.78;;;3.55;;
15990;SDS011;8100;50.994;4.538;2022-09-12T04:59:35;4.68;;;3.67;;
15990;SDS011;8100;50.994;4.538;2022-09-12T05:02:23;5.63;;;3.88;;
15990;SDS011;8100;50.994;4.538;2022-09-12T05:05:10;4.40;;;3.10;;
15990;SDS011;8100;50.994;4.538;2022-09-12T05:07:59;3.63;;;3.20;;
15990;SDS011;8100;50.994;4.538;2022-09-12T05:10:46;7.43;;;3.80;;
15990;SDS011;8100;50.994;4.538;2022-09-12T05:13:34;4.03;;;3.08;;
15990;SDS011;8100;50.994;4.538;2022-09-12T05:16:21;3.80;;;3.22;;
15990;SDS011;8100;50.994;4.538;2022-09-12T05:19:10;3.95;;;3.55;;
15990;SDS011;8100;50.994;4.538;2022-09-12T05:21:57;6.07;;;3.88;;
15990;SDS011;8100;50.994;4.538;2022-09-12T05:24:46;4.22;;;3.42;;
15990;SDS011;8100;50.994;4.538;2022-09-12T05:27:34;5.05;;;3.67;;
15990;SDS011;8100;50.994;4.538;2022-09-12T05:30:21;5.57;;;3.90;;
15990;SDS011;8100;50.994;4.538;2022-09-12T05:33:08;4.78;;;3.90;;
15990;SDS011;8100;50.994;4.538;2022-09-12T05:35:55;6.00;;;3.00;;
15990;SDS011;8100;50.994;4.538;2022-09-12T05:38:43;4.18;;;3.25;;
15990;SDS011;8100;50.994;4.538;2022-09-12T05:41:32;4.50;;;3.38;;
15990;SDS011;8100;50.994;4.538;2022-09-12T05:44:21;4.35;;;2.88;;
15990;SDS011;8100;50.994;4.538;2022-09-12T05:47:10;4.63;;;2.90;;
15990;SDS011;8100;50.994;4.538;2022-09-12T05:49:57;5.18;;;3.60;;
15990;SDS011;8100;50.994;4.538;2022-09-12T05:52:45;5.55;;;3.28;;
15990;SDS011;8100;50.994;4.538;2022-09-12T05:55:32;4.18;;;3.20;;
15990;SDS011;8100;50.994;4.538;2022-09-12T05:58:21;4.22;;;3.03;;
15990;SDS011;8100;50.994;4.538;2022-09-12T06:01:09;4.95;;;3.30;;
15990;SDS011;8100;50.994;4.538;2022-09-12T06:03:58;4.88;;;3.35;;
15990;SDS011;8100;50.994;4.538;2022-09-12T06:06:46;3.30;;;2.63;;
15990;SDS011;8100;50.994;4.538;2022-09-12T06:09:33;4.78;;;3.00;;
15990;SDS011;8100;50.994;4.538;2022-09-12T06:12:20;4.55;;;3.28;;
15990;SDS011;8100;50.994;4.538;2022-09-12T06:15:09;6.40;;;3.35;;
15990;SDS011;8100;50.994;4.538;2022-09-12T06:17:57;3.72;;;3.20;;
15990;SDS011;8100;50.994;4.538;2022-09-12T06:20:44;4.30;;;3.33;;
15990;SDS011;8100;50.994;4.538;2022-09-12T06:23:31;5.93;;;3.60;;
15990;SDS011;8100;50.994;4.538;2022-09-12T06:26:19;4.75;;;3.38;;
15990;SDS011;8100;50.994;4.538;2022-09-12T06:29:08;5.55;;;3.13;;
15990;SDS011;8100;50.994;4.538;2022-09-12T06:31:57;5.05;;;3.65;;
15990;SDS011;8100;50.994;4.538;2022-09-12T06:34:44;5.18;;;3.60;;
15990;SDS011;8100;50.994;4.538;2022-09-12T06:37:32;5.03;;;3.88;;
15990;SDS011;8100;50.994;4.538;2022-09-12T06:40:20;6.40;;;3.78;;
15990;SDS011;8100;50.994;4.538;2022-09-12T06:43:07;5.97;;;4.30;;
15990;SDS011;8100;50.994;4.538;2022-09-12T06:45:54;5.82;;;4.25;;
15990;SDS011;8100;50.994;4.538;2022-09-12T06:48:43;6.15;;;4.40;;
15990;SDS011;8100;50.994;4.538;2022-09-12T06:51:30;8.15;;;4.35;;
15990;SDS011;8100;50.994;4.538;2022-09-12T06:54:17;5.57;;;4.13;;
15990;SDS011;8100;50.994;4.538;2022-09-12T06:57:04;7.97;;;4.32;;
15990;SDS011;8100;50.994;4.538;2022-09-12T06:59:52;6.22;;;4.30;;
15990;SDS011;8100;50.994;4.538;2022-09-12T07:02:39;8.60;;;4.43;;
15990;SDS011;8100;50.994;4.538;2022-09-12T07:05:28;5.72;;;4.32;;
15990;SDS011;8100;50.994;4.538;2022-09-12T07:08:16;6.53;;;4.45;;
15990;SDS011;8100;50.994;4.538;2022-09-12T07:11:10;7.55;;;4.18;;
15990;SDS011;8100;50.994;4.538;2022-09-12T07:13:59;6.93;;;4.78;;
15990;SDS011;8100;50.994;4.538;2022-09-12T07:16:48;5.95;;;4.47;;
15990;SDS011;8100;50.994;4.538;2022-09-12T07:19:35;6.03;;;4.22;;
15990;SDS011;8100;50.994;4.538;2022-09-12T07:22:23;6.43;;;4.38;;
15990;SDS011;8100;50.994;4.538;2022-09-12T07:25:11;7.03;;;4.75;;
15990;SDS011;8100;50.994;4.538;2022-09-12T07:27:58;7.63;;;4.60;;
15990;SDS011;8100;50.994;4.538;2022-09-12T07:30:45;5.63;;;4.30;;
15990;SDS011;8100;50.994;4.538;2022-09-12T07:33:32;6.85;;;4.50;;
15990;SDS011;8100;50.994;4.538;2022-09-12T07:36:20;6.40;;;3.85;;
15990;SDS011;8100;50.994;4.538;2022-09-12T07:39:10;7.82;;;4.15;;
15990;SDS011;8100;50.994;4.538;2022-09-12T07:41:57;7.80;;;4.25;;
15990;SDS011;8100;50.994;4.538;2022-09-12T07:44:45;5.47;;;4.15;;
15990;SDS011;8100;50.994;4.538;2022-09-12T07:47:33;5.95;;;3.95;;
15990;SDS011;8100;50.994;4.538;2022-09-12T07:50:20;4.78;;;3.53;;
15990;SDS011;8100;50.994;4.538;2022-09-12T07:53:07;5.80;;;4.05;;
15990;SDS011;8100;50.994;4.538;2022-09-12T07:55:57;5.75;;;4.00;;
15990;SDS011;8100;50.994;4.538;2022-09-12T07:58:44;5.38;;;3.65;;
15990;SDS011;8100;50.994;4.538;2022-09-12T08:01:32;5.65;;;3.60;;
15990;SDS011;8100;50.994;4.538;2022-09-12T08:04:19;7.07;;;4.15;;
15990;SDS011;8100;50.994;4.538;2022-09-12T08:07:06;4.55;;;3.42;;
15990;SDS011;8100;50.994;4.538;2022-09-12T08:09:54;4.93;;;3.50;;
15990;SDS011;8100;50.994;4.538;2022-09-12T08:12:43;5.15;;;3.60;;
15990;SDS011;8100;50.994;4.538;2022-09-12T08:15:30;5.18;;;3.60;;
15990;SDS011;8100;50.994;4.538;2022-09-12T08:18:17;4.70;;;3.70;;
15990;SDS011;8100;50.994;4.538;2022-09-12T08:21:05;4.40;;;3.15;;
15990;SDS011;8100;50.994;4.538;2022-09-12T08:23:56;5.15;;;3.15;;
15990;SDS011;8100;50.994;4.538;2022-09-12T08:26:45;5.43;;;3.78;;
15990;SDS011;8100;50.994;4.538;2022-09-12T08:29:33;5.55;;;3.47;;
15990;SDS011;8100;50.994;4.538;2022-09-12T08:32:20;6.78;;;3.70;;
15990;SDS011;8100;50.994;4.538;2022-09-12T08:35:08;8.98;;;3.92;;
15990;SDS011;8100;50.994;4.538;2022-09-12T08:37:55;6.85;;;3.30;;
15990;SDS011;8100;50.994;4.538;2022-09-12T08:40:45;4.05;;;2.95;;
15990;SDS011;8100;50.994;4.538;2022-09-12T08:43:43;3.90;;;2.92;;
15990;SDS011;8100;50.994;4.538;2022-09-12T08:46:48;4.22;;;3.20;;
15990;SDS011;8100;50.994;4.538;2022-09-12T08:49:46;3.70;;;3.03;;
15990;SDS011;8100;50.994;4.538;2022-09-12T08:52:40;4.00;;;2.42;;
15990;SDS011;8100;50.994;4.538;2022-09-12T08:55:35;3.50;;;3.00;;
15990;SDS011;8100;50.994;4.538;2022-09-12T08:58:24;5.15;;;2.92;;
15990;SDS011;8100;50.994;4.538;2022-09-12T09:01:15;3.92;;;3.10;;
15990;SDS011;8100;50.994;4.538;2022-09-12T09:07:32;4.15;;;2.60;;
15990;SDS011;8100;50.994;4.538;2022-09-12T09:10:46;5.03;;;2.95;;
15990;SDS011;8100;50.994;4.538;2022-09-12T09:13:41;3.45;;;2.47;;
15990;SDS011;8100;50.994;4.538;2022-09-12T09:16:57;4.15;;;2.50;;
15990;SDS011;8100;50.994;4.538;2022-09-12T09:19:49;4.30;;;2.25;;
15990;SDS011;8100;50.994;4.538;2022-09-12T09:22:41;2.65;;;2.10;;
15990;SDS011;8100;50.994;4.538;2022-09-12T09:25:36;3.08;;;2.50;;
15990;SDS011;8100;50.994;4.538;2022-09-12T09:28:30;2.60;;;1.88;;
15990;SDS011;8100;50.994;4.538;2022-09-12T09:31:23;3.50;;;2.40;;
15990;SDS011;8100;50.994;4.538;2022-09-12T09:34:12;3.00;;;2.38;;
15990;SDS011;8100;50.994;4.538;2022-09-12T09:37:06;2.80;;;2.10;;
15990;SDS011;8100;50.994;4.538;2022-09-12T09:40:02;3.72;;;2.17;;
15990;SDS011;8100;50.994;4.538;2022-09-12T09:43:01;3.67;;;2.55;;
15990;SDS011;8100;50.994;4.538;2022-09-12T09:45:53;2.85;;;2.20;;
15990;SDS011;8100;50.994;4.538;2022-09-12T09:48:42;4.05;;;2.50;;
15990;SDS011;8100;50.994;4.538;2022-09-12T09:51:33;3.20;;;2.10;;
15990;SDS011;8100;50.994;4.538;2022-09-12T09:54:23;3.20;;;1.80;;
15990;SDS011;8100;50.994;4.538;2022-09-12T10:00:29;2.92;;;2.10;;
15990;SDS011;8100;50.994;4.538;2022-09-12T10:03:23;3.78;;;2.00;;
15990;SDS011;8100;50.994;4.538;2022-09-12T10:06:21;2.28;;;1.77;;
15990;SDS011;8100;50.994;4.538;2022-09-12T10:09:17;2.10;;;1.90;;
15990;SDS011;8100;50.994;4.538;2022-09-12T10:12:19;3.25;;;1.98;;
15990;SDS011;8100;50.994;4.538;2022-09-12T10:15:15;3.03;;;1.85;;
15990;SDS011;8100;50.994;4.538;2022-09-12T10:18:03;2.72;;;2.00;;
15990;SDS011;8100;50.994;4.538;2022-09-12T10:20:51;2.00;;;1.65;;
15990;SDS011;8100;50.994;4.538;2022-09-12T10:23:38;4.50;;;2.25;;
15990;SDS011;8100;50.994;4.538;2022-09-12T10:26:31;2.60;;;2.22;;
15990;SDS011;8100;50.994;4.538;2022-09-12T10:29:21;3.03;;;1.70;;
15990;SDS011;8100;50.994;4.538;2022-09-12T10:32:13;3.55;;;1.80;;
15990;SDS011;8100;50.994;4.538;2022-09-12T10:35:15;3.83;;;1.80;;
15990;SDS011;8100;50.994;4.538;2022-09-12T10:38:05;2.75;;;1.77;;
15990;SDS011;8100;50.994;4.538;2022-09-12T10:41:00;3.03;;;1.70;;
15990;SDS011;8100;50.994;4.538;2022-09-12T10:43:52;3.60;;;2.00;;
15990;SDS011;8100;50.994;4.538;2022-09-12T10:46:52;2.60;;;2.08;;
15990;SDS011;8100;50.994;4.538;2022-09-12T10:49:39;3.17;;;2.00;;
15990;SDS011;8100;50.994;4.538;2022-09-12T10:52:27;3.42;;;2.13;;
15990;SDS011;8100;50.994;4.538;2022-09-12T10:55:14;5.97;;;2.22;;
15990;SDS011;8100;50.994;4.538;2022-09-12T10:58:05;2.75;;;1.80;;
15990;SDS011;8100;50.994;4.538;2022-09-12T11:01:03;2.85;;;2.00;;
15990;SDS011;8100;50.994;4.538;2022-09-12T11:04:16;3.08;;;2.17;;
15990;SDS011;8100;50.994;4.538;2022-09-12T11:07:18;4.03;;;2.40;;
15990;SDS011;8100;50.994;4.538;2022-09-12T11:13:28;2.58;;;2.10;;
15990;SDS011;8100;50.994;4.538;2022-09-12T11:16:31;2.40;;;1.90;;
15990;SDS011;8100;50.994;4.538;2022-09-12T11:19:42;3.65;;;2.17;;
15990;SDS011;8100;50.994;4.538;2022-09-12T11:22:46;3.08;;;2.03;;
15990;SDS011;8100;50.994;4.538;2022-09-12T11:25:51;3.10;;;2.08;;
15990;SDS011;8100;50.994;4.538;2022-09-12T11:28:48;3.55;;;2.20;;
15990;SDS011;8100;50.994;4.538;2022-09-12T11:35:02;2.13;;;1.80;;
15990;SDS011;8100;50.994;4.538;2022-09-12T11:38:03;3.55;;;2.10;;
15990;SDS011;8100;50.994;4.538;2022-09-12T11:41:04;2.53;;;2.20;;
15990;SDS011;8100;50.994;4.538;2022-09-12T11:43:56;4.22;;;1.80;;
15990;SDS011;8100;50.994;4.538;2022-09-12T11:46:48;2.58;;;2.05;;
15990;SDS011;8100;50.994;4.538;2022-09-12T11:49:38;2.38;;;1.85;;
15990;SDS011;8100;50.994;4.538;2022-09-12T11:52:31;3.22;;;1.95;;
15990;SDS011;8100;50.994;4.538;2022-09-12T11:55:24;4.68;;;2.03;;
15990;SDS011;8100;50.994;4.538;2022-09-12T11:58:14;3.25;;;2.05;;
15990;SDS011;8100;50.994;4.538;2022-09-12T12:01:07;2.25;;;1.67;;
15990;SDS011;8100;50.994;4.538;2022-09-12T12:03:58;1.58;;;1.42;;
15990;SDS011;8100;50.994;4.538;2022-09-12T12:06:54;1.63;;;1.50;;
15990;SDS011;8100;50.994;4.538;2022-09-12T12:09:49;2.80;;;1.83;;
15990;SDS011;8100;50.994;4.538;2022-09-12T12:12:37;2.53;;;1.50;;
15990;SDS011;8100;50.994;4.538;2022-09-12T12:15:25;1.73;;;1.42;;
15990;SDS011;8100;50.994;4.538;2022-09-12T12:18:14;1.98;;;1.38;;
15990;SDS011;8100;50.994;4.538;2022-09-12T12:21:19;1.77;;;1.45;;
15990;SDS011;8100;50.994;4.538;2022-09-12T12:24:20;3.05;;;1.58;;
15990;SDS011;8100;50.994;4.538;2022-09-12T12:27:22;2.03;;;1.35;;
15990;SDS011;8100;50.994;4.538;2022-09-12T12:33:51;4.18;;;1.60;;
15990;SDS011;8100;50.994;4.538;2022-09-12T12:36:54;1.60;;;1.30;;
15990;SDS011;8100;50.994;4.538;2022-09-12T12:43:00;2.10;;;1.27;;
15990;SDS011;8100;50.994;4.538;2022-09-12T12:46:00;2.42;;;1.20;;
15990;SDS011;8100;50.994;4.538;2022-09-12T12:48:53;2.38;;;1.10;;
15990;SDS011;8100;50.994;4.538;2022-09-12T12:51:55;1.55;;;1.20;;
15990;SDS011;8100;50.994;4.538;2022-09-12T12:54:50;1.45;;;1.33;;
15990;SDS011;8100;50.994;4.538;2022-09-12T12:57:46;3.03;;;1.30;;
15990;SDS011;8100;50.994;4.538;2022-09-12T13:00:35;2.03;;;1.60;;
15990;SDS011;8100;50.994;4.538;2022-09-12T13:03:26;3.65;;;1.48;;
15990;SDS011;8100;50.994;4.538;2022-09-12T13:06:21;2.33;;;1.27;;
15990;SDS011;8100;50.994;4.538;2022-09-12T13:09:19;2.60;;;1.40;;
15990;SDS011;8100;50.994;4.538;2022-09-12T13:12:09;1.50;;;1.40;;
15990;SDS011;8100;50.994;4.538;2022-09-12T13:15:27;2.13;;;1.20;;
15990;SDS011;8100;50.994;4.538;2022-09-12T13:18:28;3.67;;;1.50;;
15990;SDS011;8100;50.994;4.538;2022-09-12T13:21:19;1.52;;;1.35;;
15990;SDS011;8100;50.994;4.538;2022-09-12T13:24:11;1.73;;;1.17;;
15990;SDS011;8100;50.994;4.538;2022-09-12T13:27:01;1.92;;;1.30;;
15990;SDS011;8100;50.994;4.538;2022-09-12T13:29:48;1.80;;;1.30;;
15990;SDS011;8100;50.994;4.538;2022-09-12T13:32:52;3.53;;;1.25;;
15990;SDS011;8100;50.994;4.538;2022-09-12T13:35:45;1.02;;;1.00;;
15990;SDS011;8100;50.994;4.538;2022-09-12T13:38:50;1.33;;;1.10;;
15990;SDS011;8100;50.994;4.538;2022-09-12T13:41:49;1.75;;;1.25;;
15990;SDS011;8100;50.994;4.538;2022-09-12T13:45:04;1.77;;;1.08;;
15990;SDS011;8100;50.994;4.538;2022-09-12T13:47:58;2.03;;;1.00;;
15990;SDS011;8100;50.994;4.538;2022-09-12T13:50:49;1.83;;;1.20;;
15990;SDS011;8100;50.994;4.538;2022-09-12T13:53:40;1.50;;;1.05;;
15990;SDS011;8100;50.994;4.538;2022-09-12T13:56:29;1.88;;;1.10;;
15990;SDS011;8100;50.994;4.538;2022-09-12T13:59:16;1.33;;;0.93;;
15990;SDS011;8100;50.994;4.538;2022-09-12T14:02:14;1.20;;;1.10;;
15990;SDS011;8100;50.994;4.538;2022-09-12T14:05:13;1.75;;;1.30;;
15990;SDS011;8100;50.994;4.538;2022-09-12T14:08:05;1.67;;;1.15;;
15990;SDS011;8100;50.994;4.538;2022-09-12T14:10:54;3.00;;;1.38;;
15990;SDS011;8100;50.994;4.538;2022-09-12T14:13:42;1.55;;;1.20;;
15990;SDS011;8100;50.994;4.538;2022-09-12T14:16:30;1.45;;;1.10;;
15990;SDS011;8100;50.994;4.538;2022-09-12T14:19:25;2.17;;;1.45;;
15990;SDS011;8100;50.994;4.538;2022-09-12T14:22:15;1.75;;;1.30;;
15990;SDS011;8100;50.994;4.538;2022-09-12T14:25:03;1.80;;;1.10;;
15990;SDS011;8100;50.994;4.538;2022-09-12T14:27:55;1.58;;;1.23;;
15990;SDS011;8100;50.994;4.538;2022-09-12T14:30:55;3.83;;;1.52;;
15990;SDS011;8100;50.994;4.538;2022-09-12T14:33:48;4.43;;;1.25;;
15990;SDS011;8100;50.994;4.538;2022-09-12T14:36:39;4.50;;;1.35;;
15990;SDS011;8100;50.994;4.538;2022-09-12T14:39:30;4.78;;;1.30;;
15990;SDS011;8100;50.994;4.538;2022-09-12T14:42:20;1.77;;;1.25;;
15990;SDS011;8100;50.994;4.538;2022-09-12T14:45:13;1.73;;;1.15;;
15990;SDS011;8100;50.994;4.538;2022-09-12T14:48:02;5.13;;;1.20;;
15990;SDS011;8100;50.994;4.538;2022-09-12T14:50:50;3.13;;;1.38;;
15990;SDS011;8100;50.994;4.538;2022-09-12T14:53:38;1.77;;;1.00;;
15990;SDS011;8100;50.994;4.538;2022-09-12T14:56:39;2.40;;;1.15;;
15990;SDS011;8100;50.994;4.538;2022-09-12T14:59:28;1.40;;;0.93;;
15990;SDS011;8100;50.994;4.538;2022-09-12T15:02:23;2.08;;;1.10;;
15990;SDS011;8100;50.994;4.538;2022-09-12T15:05:16;2.33;;;1.30;;
15990;SDS011;8100;50.994;4.538;2022-09-12T15:08:13;2.45;;;1.00;;
15990;SDS011;8100;50.994;4.538;2022-09-12T15:11:01;4.53;;;1.42;;
15990;SDS011;8100;50.994;4.538;2022-09-12T15:13:52;2.25;;;1.00;;
15990;SDS011;8100;50.994;4.538;2022-09-12T15:16:40;1.33;;;1.00;;
15990;SDS011;8100;50.994;4.538;2022-09-12T15:19:27;3.55;;;1.33;;
15990;SDS011;8100;50.994;4.538;2022-09-12T15:22:22;3.58;;;1.25;;
15990;SDS011;8100;50.994;4.538;2022-09-12T15:25:10;2.60;;;1.55;;
15990;SDS011;8100;50.994;4.538;2022-09-12T15:27:58;3.42;;;1.45;;
15990;SDS011;8100;50.994;4.538;2022-09-12T15:30:48;2.40;;;1.20;;
15990;SDS011;8100;50.994;4.538;2022-09-12T15:33:36;1.42;;;0.98;;
15990;SDS011;8100;50.994;4.538;2022-09-12T15:36:24;1.30;;;1.13;;
15990;SDS011;8100;50.994;4.538;2022-09-12T15:39:13;3.20;;;1.52;;
15990;SDS011;8100;50.994;4.538;2022-09-12T15:42:00;2.20;;;1.10;;
15990;SDS011;8100;50.994;4.538;2022-09-12T15:44:47;6.35;;;1.73;;
15990;SDS011;8100;50.994;4.538;2022-09-12T15:47:36;1.40;;;1.10;;
15990;SDS011;8100;50.994;4.538;2022-09-12T15:50:23;2.30;;;1.33;;
15990;SDS011;8100;50.994;4.538;2022-09-12T15:53:12;2.45;;;1.10;;
15990;SDS011;8100;50.994;4.538;2022-09-12T15:56:01;4.90;;;1.20;;
15990;SDS011;8100;50.994;4.538;2022-09-12T15:58:48;2.15;;;1.23;;
15990;SDS011;8100;50.994;4.538;2022-09-12T16:01:36;1.40;;;1.08;;
15990;SDS011;8100;50.994;4.538;2022-09-12T16:04:25;2.67;;;1.40;;
15990;SDS011;8100;50.994;4.538;2022-09-12T16:07:13;3.05;;;1.17;;
15990;SDS011;8100;50.994;4.538;2022-09-12T16:10:00;1.20;;;0.90;;
15990;SDS011;8100;50.994;4.538;2022-09-12T16:12:47;3.15;;;1.10;;
15990;SDS011;8100;50.994;4.538;2022-09-12T16:15:35;26.60;;;5.10;;
15990;SDS011;8100;50.994;4.538;2022-09-12T16:18:23;17.40;;;3.85;;
15990;SDS011;8100;50.994;4.538;2022-09-12T16:21:12;4.57;;;1.20;;
15990;SDS011;8100;50.994;4.538;2022-09-12T16:23:59;2.88;;;1.30;;
15990;SDS011;8100;50.994;4.538;2022-09-12T16:26:47;6.35;;;1.50;;
15990;SDS011;8100;50.994;4.538;2022-09-12T16:29:34;1.50;;;1.00;;
15990;SDS011;8100;50.994;4.538;2022-09-12T16:32:21;2.05;;;0.82;;
15990;SDS011;8100;50.994;4.538;2022-09-12T16:35:09;1.33;;;0.70;;
15990;SDS011;8100;50.994;4.538;2022-09-12T16:37:57;1.98;;;0.70;;
15990;SDS011;8100;50.994;4.538;2022-09-12T16:40:45;8.98;;;2.17;;
15990;SDS011;8100;50.994;4.538;2022-09-12T16:43:32;2.88;;;1.20;;
15990;SDS011;8100;50.994;4.538;2022-09-12T16:46:21;0.93;;;0.80;;
15990;SDS011;8100;50.994;4.538;2022-09-12T16:49:09;1.98;;;0.98;;
15990;SDS011;8100;50.994;4.538;2022-09-12T16:51:57;1.05;;;0.90;;
15990;SDS011;8100;50.994;4.538;2022-09-12T16:54:45;1.40;;;0.70;;
15990;SDS011;8100;50.994;4.538;2022-09-12T16:57:32;1.33;;;0.80;;
15990;SDS011;8100;50.994;4.538;2022-09-12T17:00:20;1.40;;;0.85;;
15990;SDS011;8100;50.994;4.538;2022-09-12T17:03:08;1.42;;;0.90;;
15990;SDS011;8100;50.994;4.538;2022-09-12T17:05:58;0.93;;;0.73;;
15990;SDS011;8100;50.994;4.538;2022-09-12T17:08:46;0.95;;;0.80;;
15990;SDS011;8100;50.994;4.538;2022-09-12T17:11:36;1.30;;;0.90;;
15990;SDS011;8100;50.994;4.538;2022-09-12T17:14:24;2.13;;;1.10;;
15990;SDS011;8100;50.994;4.538;2022-09-12T17:17:12;2.72;;;0.73;;
15990;SDS011;8100;50.994;4.538;2022-09-12T17:19:59;1.00;;;0.80;;
15990;SDS011;8100;50.994;4.538;2022-09-12T17:22:46;2.25;;;0.90;;
15990;SDS011;8100;50.994;4.538;2022-09-12T17:25:33;1.67;;;1.00;;
15990;SDS011;8100;50.994;4.538;2022-09-12T17:28:22;2.30;;;0.77;;
15990;SDS011;8100;50.994;4.538;2022-09-12T17:31:10;1.15;;;0.70;;
15990;SDS011;8100;50.994;4.538;2022-09-12T17:33:58;2.38;;;0.98;;
15990;SDS011;8100;50.994;4.538;2022-09-12T17:36:47;2.10;;;0.98;;
15990;SDS011;8100;50.994;4.538;2022-09-12T17:39:34;1.10;;;0.80;;
15990;SDS011;8100;50.994;4.538;2022-09-12T17:42:21;2.58;;;0.95;;
15990;SDS011;8100;50.994;4.538;2022-09-12T17:45:10;1.27;;;1.00;;
15990;SDS011;8100;50.994;4.538;2022-09-12T17:47:58;1.33;;;1.02;;
15990;SDS011;8100;50.994;4.538;2022-09-12T17:50:46;2.05;;;1.10;;